Vigil, Colorado
Current Conditions -  °F | °C
As of 4:53 AM on Thursday 29 Jan 2015 (Local Time) from KRTN Reporting Station
Broken Clouds Broken Clouds  
Wind Chill: 30°   Ceiling: 7000
Heat Index: 38°   Visibility: 10mi
Dew Point: 29°   Wind: 14mph
Humidity: 70%   Direction: 360°N
Pressure: 30.37"   Gusts: NA
Location:  37.1566°N, 104.956°W
Report Text: KRTN 291153Z AUTO 36012KT 10SM BKN070 03/M02 A3037 RMK AO2 SLP255 T00331017 10050 20011 51010
Loading
Personal Weather Stations






























Interactive Weather Map New forecast layout! Learn more

10-Day Weather Forecast

Advertisements
Track Severe Weather on mobile